Boston, Massachusetts
Traffic Map
Current Weather Conditions
Boston, Massachusetts
Few Clouds
Few Clouds
21°
Feels Like: 21°
Wind Chill: 21° Ceiling: Unl
Heat Index: 21° Visibility: 10mi
Dew Point: 16° Wind: 13mph
Humidity: 73% Direction: 80° (E)
Pressure: 30.01in Gusts: 0mph
Raw Report DataKBOS 231854Z 08011KT 10SM FEW020 FEW033 FEW250 21/16 A3001 RMK AO2 SLP163 T02060156
Traffic Incident Summary
Active as of:
Severity:
Category:
InformationThere was an issue retrieving the traffic information for this location. Please try a different location or try again shortly.
Advertisements